MOL Paramount — 3ECH9 — position and weather

sailwx.info

Track history (hours):
 
Tides and Currents Weather Stations Pressure Air Temp Water Temp Dewpoint Dewpoint Depression Visibility Wind Speed Wind Dir Waves Ship Positions

MOL Paramount

Last reported at 2014-Dec-28 17:33 UTC. Time now 2015-Jan-27 14:23 UTC.
Position N 35°06' E 129°18'.
Warning: this ship's position is 29 days out of date.

Length 293 m; draft 14 m.

Type: Cargo ship. MMSI: 371519000.

Date/timePositionNaut miles runAvg speedWind from/ knotsBaromVisibWave heightAir tempDewpointWater temp
2014-Dec-28 17:33N 35°06' E 129°18'10 9.6
2014-Dec-28 16:33N 35°05' E 129°06'2 1.7
2014-Dec-28 15:33N 35°06' E 129°04'0 0.0
2014-Dec-28 14:33N 35°06' E 129°04'0 0.0
2014-Dec-28 13:30N 35°06' E 129°04'0 0.0
2014-Dec-28 12:33N 35°06' E 129°04'0 0.0
2014-Dec-28 11:33N 35°06' E 129°04'0 0.0
2014-Dec-28 10:33N 35°06' E 129°04'0 0.0
2014-Dec-28 09:30N 35°06' E 129°04'0 0.0
2014-Dec-28 08:30N 35°06' E 129°04'0 0.0
2014-Dec-28 07:33N 35°06' E 129°04'0 0.0
2014-Dec-28 06:33N 35°06' E 129°04'0 0.0
2014-Dec-28 05:33N 35°06' E 129°04'0 0.0
2014-Dec-28 04:33N 35°06' E 129°04'0 0.0
2014-Dec-28 03:30N 35°06' E 129°04'0 0.0
2014-Dec-28 02:33N 35°06' E 129°04'0 0.0
2014-Dec-28 01:33N 35°06' E 129°04'0 0.0
2014-Dec-28 00:33N 35°06' E 129°04'0 0.0
2014-Dec-27 23:33N 35°06' E 129°04'0 0.0
2014-Dec-27 22:33N 35°06' E 129°04'0 0.0
2014-Dec-27 21:33N 35°06' E 129°04'0 0.0
2014-Dec-27 20:33N 35°06' E 129°04'0 0.0
2014-Dec-27 19:33N 35°06' E 129°04'0 0.0
2014-Dec-27 18:33N 35°06' E 129°04'6 6.2
2014-Dec-27 17:33N 35°02' E 129°10'45018.5
2014-Dec-26 17:13N 29°50' E 122°45'1217.8
2014-Dec-26 16:33N 29°43' E 122°35'1414.4
2014-Dec-26 15:33N 29°45' E 122°18'9 9.0
2014-Dec-26 14:33N 29°50' E 122°10'9 2.0
2014-Dec-26 10:15N 29°46' E 122°01'0 0.0
2014-Dec-26 09:33N 29°46' E 122°01'0 0.0
2014-Dec-26 08:27N 29°46' E 122°01'0 0.0
2014-Dec-26 06:27N 29°46' E 122°01'0 0.0
2014-Dec-26 00:33N 29°46' E 122°01'0 0.2
2014-Dec-25 23:34N 29°46' E 122°01'9 8.8
2014-Dec-25 22:33N 29°50' E 122°10'8 8.4
2014-Dec-25 21:33N 29°45' E 122°18'9 9.4
2014-Dec-25 20:34N 29°42' E 122°28'8 8.3
2014-Dec-25 19:33N 29°41' E 122°38'6 6.1
2014-Dec-25 18:33N 29°43' E 122°45'15 6.2
2014-Dec-25 16:11N 29°51' E 122°59'31 6.5
2014-Dec-25 11:28N 30°22' E 122°53'9 9.4
2014-Dec-25 10:31N 30°27' E 122°45'1411.3
2014-Dec-25 09:15N 30°30' E 122°29'912.5
2014-Dec-25 08:33N 30°32' E 122°19'1212.5
2014-Dec-25 07:33N 30°36' E 122°05'2 1.7
2014-Dec-25 06:31N 30°37' E 122°04'0 0.0
2014-Dec-25 05:31N 30°37' E 122°04'0 0.0
2014-Dec-25 04:31N 30°37' E 122°04'0 0.0
2014-Dec-25 03:28N 30°37' E 122°04'0 0.0
2014-Dec-25 02:31N 30°37' E 122°04'0 0.0
2014-Dec-25 01:31N 30°37' E 122°04'0 0.0
2014-Dec-25 00:31N 30°37' E 122°04'0 0.0
2014-Dec-24 23:31N 30°37' E 122°04'0 0.0
2014-Dec-24 22:33N 30°37' E 122°04'0 0.0
2014-Dec-24 21:33N 30°37' E 122°04'2 1.7
2014-Dec-24 20:33N 30°36' E 122°05'1010.5
2014-Dec-24 19:33N 30°33' E 122°17'6 6.1
2014-Dec-24 18:33N 30°32' E 122°24'6 5.6
2014-Dec-24 17:33N 30°31' E 122°30'2 0.6
2014-Dec-24 14:27N 30°29' E 122°30'0 0.1
2014-Dec-24 12:24N 30°29' E 122°30'0 0.1
2014-Dec-24 11:30N 30°29' E 122°31'0 0.1
2014-Dec-24 10:24N 30°29' E 122°31'0 0.0
2014-Dec-24 09:33N 30°29' E 122°31'0 0.1
2014-Dec-24 08:33N 30°29' E 122°31'4 4.4
2014-Dec-24 07:34N 30°30' E 122°36'17 8.2
2014-Dec-24 05:31N 30°23' E 122°53'38911.7
2014-Dec-22 20:16N 24°41' E 119°24'1013.5
2014-Dec-22 19:33N 24°37' E 119°14'1312.7
2014-Dec-22 18:33N 24°29' E 119°03'1211.7
2014-Dec-22 17:33N 24°25' E 118°51'1211.7
2014-Dec-22 16:33N 24°20' E 118°39'1212.4
2014-Dec-22 15:33N 24°15' E 118°27'1111.2
2014-Dec-22 14:32N 24°15' E 118°15'1110.9
2014-Dec-22 13:32N 24°23' E 118°07'8 8.0
2014-Dec-22 12:33N 24°31' E 118°05'0 0.2
2014-Dec-22 11:23N 24°31' E 118°05'0 0.0
2014-Dec-22 10:32N 24°31' E 118°05'0 0.0
2014-Dec-22 09:21N 24°31' E 118°05'0 0.0
2014-Dec-22 08:32N 24°31' E 118°05'0 0.0
2014-Dec-22 07:34N 24°31' E 118°05'0 0.0
2014-Dec-22 06:33N 24°31' E 118°05'0 0.0
2014-Dec-22 05:33N 24°31' E 118°05'0 0.0
2014-Dec-22 04:33N 24°31' E 118°05'0 0.0
2014-Dec-22 03:33N 24°31' E 118°05'0 0.0
2014-Dec-22 02:33N 24°31' E 118°05'0 0.0
2014-Dec-22 01:33N 24°31' E 118°05'0 0.3
2014-Dec-22 00:33N 24°31' E 118°05'9 8.3
2014-Dec-21 23:32N 24°23' E 118°07'6 6.1
2014-Dec-21 22:33N 24°18' E 118°11'7 7.4
2014-Dec-21 21:33N 24°12' E 118°16'1111.5
2014-Dec-21 20:33N 24°02' E 118°22'1514.6
2014-Dec-21 19:33N 23°51' E 118°11'1614.8
2014-Dec-21 18:27N 23°38' E 117°60'21313.4
2014-Dec-21 02:33N 22°07' E 114°31'1413.7
2014-Dec-21 01:33N 22°07' E 114°16'1311.1
2014-Dec-21 00:25N 22°16' E 114°06'8 8.3
2014-Dec-20 23:25N 22°21' E 113°59'7 8.5
2014-Dec-20 22:33N 22°26' E 113°53'3 0.2
2014-Dec-20 06:32N 22°28' E 113°52'12 8.9
2014-Dec-20 05:09N 22°21' E 114°02'3 4.9
2014-Dec-20 04:33N 22°19' E 114°05'0 0.1
2014-Dec-20 03:33N 22°19' E 114°05'3 2.7
2014-Dec-20 02:30N 22°20' E 114°08'0 0.0
2014-Dec-20 01:24N 22°20' E 114°08'0 0.0
2014-Dec-19 23:15N 22°20' E 114°08'0 0.0
2014-Dec-19 22:21N 22°20' E 114°08'0 0.0
2014-Dec-19 21:15N 22°20' E 114°08'0 0.0
2014-Dec-19 20:27N 22°20' E 114°08'0 0.0
2014-Dec-19 19:33N 22°20' E 114°08'0 0.0
2014-Dec-19 18:33N 22°20' E 114°08'0 0.0
2014-Dec-19 17:12N 22°20' E 114°08'0 0.0
2014-Dec-19 16:33N 22°20' E 114°08'0 0.0
2014-Dec-19 14:21N 22°20' E 114°08'0 0.0
2014-Dec-19 13:33N 22°20' E 114°08'0 0.0
2014-Dec-19 12:21N 22°20' E 114°08'0 0.0
2014-Dec-19 11:31N 22°20' E 114°08'2 1.9
2014-Dec-19 10:34N 22°19' E 114°06'9 8.4
2014-Dec-19 09:26N 22°11' E 114°12'7 8.0
2014-Dec-19 08:33N 22°08' E 114°19'7 6.6
2014-Dec-19 07:31N 22°09' E 114°26'7 6.8
2014-Dec-19 06:31N 22°16' E 114°26'6 6.3
2014-Dec-19 05:32N 22°21' E 114°28'16 7.3
2014-Dec-19 03:22N 22°34' E 114°17'1 1.4
2014-Dec-19 02:24N 22°34' E 114°16'0 0.0
2014-Dec-19 01:18N 22°34' E 114°16'0 0.0
2014-Dec-19 00:18N 22°34' E 114°16'0 0.0
2014-Dec-18 23:30N 22°34' E 114°16'0 0.0
2014-Dec-18 22:30N 22°34' E 114°16'0 0.0
2014-Dec-18 20:30N 22°34' E 114°16'0 0.0
2014-Dec-18 19:30N 22°34' E 114°16'0 0.0
2014-Dec-18 18:30N 22°34' E 114°16'  
Track history (hours):
 
Tides and Currents Weather Stations Pressure Air Temp Water Temp Dewpoint Dewpoint Depression Visibility Wind Speed Wind Dir Waves Ship Positions

MOL Paramount

Last reported at 2014-Dec-28 17:33 UTC. Time now 2015-Jan-27 14:23 UTC.
Position N 35°06' E 129°18'.
Warning: this ship's position is 29 days out of date.

Length 293 m; draft 14 m.

Type: Cargo ship. MMSI: 371519000.

Date/timePositionNaut miles runAvg speedWind from/ knotsBaromVisibWave heightAir tempDewpointWater temp
2014-Dec-28 17:33N 35°06' E 129°18'10 9.6
2014-Dec-28 16:33N 35°05' E 129°06'2 1.7
2014-Dec-28 15:33N 35°06' E 129°04'0 0.0
2014-Dec-28 14:33N 35°06' E 129°04'0 0.0
2014-Dec-28 13:30N 35°06' E 129°04'0 0.0
2014-Dec-28 12:33N 35°06' E 129°04'0 0.0
2014-Dec-28 11:33N 35°06' E 129°04'0 0.0
2014-Dec-28 10:33N 35°06' E 129°04'0 0.0
2014-Dec-28 09:30N 35°06' E 129°04'0 0.0
2014-Dec-28 08:30N 35°06' E 129°04'0 0.0
2014-Dec-28 07:33N 35°06' E 129°04'0 0.0
2014-Dec-28 06:33N 35°06' E 129°04'0 0.0
2014-Dec-28 05:33N 35°06' E 129°04'0 0.0
2014-Dec-28 04:33N 35°06' E 129°04'0 0.0
2014-Dec-28 03:30N 35°06' E 129°04'0 0.0
2014-Dec-28 02:33N 35°06' E 129°04'0 0.0
2014-Dec-28 01:33N 35°06' E 129°04'0 0.0
2014-Dec-28 00:33N 35°06' E 129°04'0 0.0
2014-Dec-27 23:33N 35°06' E 129°04'0 0.0
2014-Dec-27 22:33N 35°06' E 129°04'0 0.0
2014-Dec-27 21:33N 35°06' E 129°04'0 0.0
2014-Dec-27 20:33N 35°06' E 129°04'0 0.0
2014-Dec-27 19:33N 35°06' E 129°04'0 0.0
2014-Dec-27 18:33N 35°06' E 129°04'6 6.2
2014-Dec-27 17:33N 35°02' E 129°10'45018.5
2014-Dec-26 17:13N 29°50' E 122°45'1217.8
2014-Dec-26 16:33N 29°43' E 122°35'1414.4
2014-Dec-26 15:33N 29°45' E 122°18'9 9.0
2014-Dec-26 14:33N 29°50' E 122°10'9 2.0
2014-Dec-26 10:15N 29°46' E 122°01'0 0.0
2014-Dec-26 09:33N 29°46' E 122°01'0 0.0
2014-Dec-26 08:27N 29°46' E 122°01'0 0.0
2014-Dec-26 06:27N 29°46' E 122°01'0 0.0
2014-Dec-26 00:33N 29°46' E 122°01'0 0.2
2014-Dec-25 23:34N 29°46' E 122°01'9 8.8
2014-Dec-25 22:33N 29°50' E 122°10'8 8.4
2014-Dec-25 21:33N 29°45' E 122°18'9 9.4
2014-Dec-25 20:34N 29°42' E 122°28'8 8.3
2014-Dec-25 19:33N 29°41' E 122°38'6 6.1
2014-Dec-25 18:33N 29°43' E 122°45'15 6.2
2014-Dec-25 16:11N 29°51' E 122°59'31 6.5
2014-Dec-25 11:28N 30°22' E 122°53'9 9.4
2014-Dec-25 10:31N 30°27' E 122°45'1411.3
2014-Dec-25 09:15N 30°30' E 122°29'912.5
2014-Dec-25 08:33N 30°32' E 122°19'1212.5
2014-Dec-25 07:33N 30°36' E 122°05'2 1.7
2014-Dec-25 06:31N 30°37' E 122°04'0 0.0
2014-Dec-25 05:31N 30°37' E 122°04'0 0.0
2014-Dec-25 04:31N 30°37' E 122°04'0 0.0
2014-Dec-25 03:28N 30°37' E 122°04'0 0.0
2014-Dec-25 02:31N 30°37' E 122°04'0 0.0
2014-Dec-25 01:31N 30°37' E 122°04'0 0.0
2014-Dec-25 00:31N 30°37' E 122°04'0 0.0
2014-Dec-24 23:31N 30°37' E 122°04'0 0.0
2014-Dec-24 22:33N 30°37' E 122°04'0 0.0
2014-Dec-24 21:33N 30°37' E 122°04'2 1.7
2014-Dec-24 20:33N 30°36' E 122°05'1010.5
2014-Dec-24 19:33N 30°33' E 122°17'6 6.1
2014-Dec-24 18:33N 30°32' E 122°24'6 5.6
2014-Dec-24 17:33N 30°31' E 122°30'2 0.6
2014-Dec-24 14:27N 30°29' E 122°30'0 0.1
2014-Dec-24 12:24N 30°29' E 122°30'0 0.1
2014-Dec-24 11:30N 30°29' E 122°31'0 0.1
2014-Dec-24 10:24N 30°29' E 122°31'0 0.0
2014-Dec-24 09:33N 30°29' E 122°31'0 0.1
2014-Dec-24 08:33N 30°29' E 122°31'4 4.4
2014-Dec-24 07:34N 30°30' E 122°36'17 8.2
2014-Dec-24 05:31N 30°23' E 122°53'38911.7
2014-Dec-22 20:16N 24°41' E 119°24'1013.5
2014-Dec-22 19:33N 24°37' E 119°14'1312.7
2014-Dec-22 18:33N 24°29' E 119°03'1211.7
2014-Dec-22 17:33N 24°25' E 118°51'1211.7
2014-Dec-22 16:33N 24°20' E 118°39'1212.4
2014-Dec-22 15:33N 24°15' E 118°27'1111.2
2014-Dec-22 14:32N 24°15' E 118°15'1110.9
2014-Dec-22 13:32N 24°23' E 118°07'8 8.0
2014-Dec-22 12:33N 24°31' E 118°05'0 0.2
2014-Dec-22 11:23N 24°31' E 118°05'0 0.0
2014-Dec-22 10:32N 24°31' E 118°05'0 0.0
2014-Dec-22 09:21N 24°31' E 118°05'0 0.0
2014-Dec-22 08:32N 24°31' E 118°05'0 0.0
2014-Dec-22 07:34N 24°31' E 118°05'0 0.0
2014-Dec-22 06:33N 24°31' E 118°05'0 0.0
2014-Dec-22 05:33N 24°31' E 118°05'0 0.0
2014-Dec-22 04:33N 24°31' E 118°05'0 0.0
2014-Dec-22 03:33N 24°31' E 118°05'0 0.0
2014-Dec-22 02:33N 24°31' E 118°05'0 0.0
2014-Dec-22 01:33N 24°31' E 118°05'0 0.3
2014-Dec-22 00:33N 24°31' E 118°05'9 8.3
2014-Dec-21 23:32N 24°23' E 118°07'6 6.1
2014-Dec-21 22:33N 24°18' E 118°11'7 7.4
2014-Dec-21 21:33N 24°12' E 118°16'1111.5
2014-Dec-21 20:33N 24°02' E 118°22'1514.6
2014-Dec-21 19:33N 23°51' E 118°11'1614.8
2014-Dec-21 18:27N 23°38' E 117°60'21313.4
2014-Dec-21 02:33N 22°07' E 114°31'1413.7
2014-Dec-21 01:33N 22°07' E 114°16'1311.1
2014-Dec-21 00:25N 22°16' E 114°06'8 8.3
2014-Dec-20 23:25N 22°21' E 113°59'7 8.5
2014-Dec-20 22:33N 22°26' E 113°53'3 0.2
2014-Dec-20 06:32N 22°28' E 113°52'12 8.9
2014-Dec-20 05:09N 22°21' E 114°02'3 4.9
2014-Dec-20 04:33N 22°19' E 114°05'0 0.1
2014-Dec-20 03:33N 22°19' E 114°05'3 2.7
2014-Dec-20 02:30N 22°20' E 114°08'0 0.0
2014-Dec-20 01:24N 22°20' E 114°08'0 0.0
2014-Dec-19 23:15N 22°20' E 114°08'0 0.0
2014-Dec-19 22:21N 22°20' E 114°08'0 0.0
2014-Dec-19 21:15N 22°20' E 114°08'0 0.0
2014-Dec-19 20:27N 22°20' E 114°08'0 0.0
2014-Dec-19 19:33N 22°20' E 114°08'0 0.0
2014-Dec-19 18:33N 22°20' E 114°08'0 0.0
2014-Dec-19 17:12N 22°20' E 114°08'0 0.0
2014-Dec-19 16:33N 22°20' E 114°08'0 0.0
2014-Dec-19 14:21N 22°20' E 114°08'0 0.0
2014-Dec-19 13:33N 22°20' E 114°08'0 0.0
2014-Dec-19 12:21N 22°20' E 114°08'0 0.0
2014-Dec-19 11:31N 22°20' E 114°08'2 1.9
2014-Dec-19 10:34N 22°19' E 114°06'9 8.4
2014-Dec-19 09:26N 22°11' E 114°12'7 8.0
2014-Dec-19 08:33N 22°08' E 114°19'7 6.6
2014-Dec-19 07:31N 22°09' E 114°26'7 6.8
2014-Dec-19 06:31N 22°16' E 114°26'6 6.3
2014-Dec-19 05:32N 22°21' E 114°28'16 7.3
2014-Dec-19 03:22N 22°34' E 114°17'1 1.4
2014-Dec-19 02:24N 22°34' E 114°16'0 0.0
2014-Dec-19 01:18N 22°34' E 114°16'0 0.0
2014-Dec-19 00:18N 22°34' E 114°16'0 0.0
2014-Dec-18 23:30N 22°34' E 114°16'0 0.0
2014-Dec-18 22:30N 22°34' E 114°16'0 0.0
2014-Dec-18 20:30N 22°34' E 114°16'0 0.0
2014-Dec-18 19:30N 22°34' E 114°16'0 0.0
2014-Dec-18 18:30N 22°34' E 114°16'  

Dump ship's entire track history